createdAt,value
2019-02-09T00:02:03.615Z,9.40
2019-02-09T00:04:33.112Z,9.50
2019-02-09T00:07:02.705Z,9.50
2019-02-09T00:09:32.209Z,9.50
2019-02-09T00:12:01.724Z,9.50
2019-02-09T00:14:31.257Z,9.50
2019-02-09T00:17:00.762Z,9.40
2019-02-09T00:19:30.257Z,9.50
2019-02-09T00:21:59.806Z,9.50
2019-02-09T00:24:29.277Z,9.50
2019-02-09T00:26:58.806Z,9.50
2019-02-09T00:29:28.394Z,9.40
2019-02-09T00:31:57.877Z,9.40
2019-02-09T00:34:28.077Z,9.40
2019-02-09T00:36:57.725Z,9.40
2019-02-09T00:39:27.204Z,9.40
2019-02-09T00:41:56.732Z,9.40
2019-02-09T00:44:26.286Z,9.40
2019-02-09T00:46:55.836Z,9.40
2019-02-09T00:49:28.865Z,9.40
2019-02-09T00:51:58.424Z,9.30
2019-02-09T00:54:27.859Z,9.20
2019-02-09T00:56:57.414Z,9.10
2019-02-09T00:59:26.959Z,9.10
2019-02-09T01:01:56.473Z,9.10
2019-02-09T01:04:25.991Z,9.20
2019-02-09T01:06:55.642Z,9.20
2019-02-09T01:09:25.145Z,9.20
2019-02-09T01:11:54.672Z,9.20
2019-02-09T01:14:24.236Z,9.30
2019-02-09T01:16:58.884Z,9.20
2019-02-09T01:19:49.915Z,9.30
2019-02-09T01:22:23.562Z,9.40
2019-02-09T01:24:56.887Z,9.30
2019-02-09T01:27:35.370Z,9.30
2019-02-09T01:30:13.436Z,9.30
2019-02-09T01:32:45.149Z,9.40
2019-02-09T01:35:20.504Z,9.30
2019-02-09T01:37:53.361Z,9.30
2019-02-09T01:40:24.995Z,9.40
2019-02-09T01:42:55.008Z,9.30
2019-02-09T01:45:29.288Z,9.40
2019-02-09T01:47:59.237Z,9.30
2019-02-09T01:50:30.485Z,9.30
2019-02-09T01:53:00.369Z,9.30
2019-02-09T01:55:30.017Z,9.30
2019-02-09T01:58:00.268Z,9.20
2019-02-09T02:00:32.274Z,9.20
2019-02-09T02:03:01.867Z,9.20
2019-02-09T02:05:31.413Z,9.20
2019-02-09T02:08:00.983Z,9.20
2019-02-09T02:10:35.450Z,9.20
2019-02-09T02:13:07.253Z,9.20
2019-02-09T02:15:37.016Z,9.20
2019-02-09T02:18:07.451Z,9.20
2019-02-09T02:20:37.064Z,9.20
2019-02-09T02:23:06.638Z,9.30
2019-02-09T02:25:36.218Z,9.30
2019-02-09T02:28:05.967Z,9.20
2019-02-09T02:30:37.196Z,9.20
2019-02-09T02:33:07.502Z,9.20
2019-02-09T02:35:37.546Z,9.20
2019-02-09T02:38:07.267Z,9.20
2019-02-09T02:40:37.211Z,9.20
2019-02-09T02:43:06.840Z,9.30
2019-02-09T02:45:36.350Z,9.30
2019-02-09T02:48:05.999Z,9.20
2019-02-09T02:50:35.495Z,9.20
2019-02-09T02:53:05.126Z,9.20
2019-02-09T02:55:34.654Z,9.20
2019-02-09T02:58:05.356Z,9.10
2019-02-09T03:00:35.087Z,9.10
2019-02-09T03:03:04.940Z,8.90
2019-02-09T03:05:34.485Z,8.70
2019-02-09T03:08:04.386Z,8.50
2019-02-09T03:10:33.910Z,8.30
2019-02-09T03:13:03.430Z,8.20
2019-02-09T03:15:32.966Z,8.00
2019-02-09T03:18:02.596Z,7.80
2019-02-09T03:20:32.096Z,7.70
2019-02-09T03:23:01.605Z,7.60
2019-02-09T03:25:32.592Z,7.50
2019-02-09T03:28:02.131Z,7.40
2019-02-09T03:30:45.693Z,7.40
2019-02-09T03:33:02.837Z,7.40
2019-02-09T03:35:32.336Z,7.30
2019-02-09T03:38:01.877Z,7.20
2019-02-09T03:40:31.404Z,7.20
2019-02-09T03:43:00.921Z,7.20
2019-02-09T03:45:31.377Z,7.10
2019-02-09T03:48:01.527Z,7.10
2019-02-09T03:50:32.580Z,7.00
2019-02-09T03:53:02.610Z,7.10
2019-02-09T03:55:32.259Z,7.00
2019-02-09T03:58:01.797Z,7.00
2019-02-09T04:00:31.777Z,7.00
2019-02-09T04:03:01.914Z,7.10
2019-02-09T04:05:31.510Z,7.10
2019-02-09T04:08:01.059Z,7.10
2019-02-09T04:10:30.610Z,7.10
2019-02-09T04:13:00.152Z,7.20
2019-02-09T04:15:29.826Z,7.20
2019-02-09T04:17:59.361Z,7.10
2019-02-09T04:20:28.994Z,7.20
2019-02-09T04:22:58.523Z,7.20
2019-02-09T04:25:28.053Z,7.30
2019-02-09T04:27:57.560Z,7.30
2019-02-09T04:30:29.339Z,7.40
2019-02-09T04:32:58.872Z,7.40
2019-02-09T04:35:28.435Z,7.40
2019-02-09T04:37:57.945Z,7.40
2019-02-09T04:40:29.042Z,7.50
2019-02-09T04:42:58.549Z,7.50
2019-02-09T04:45:28.062Z,7.50
2019-02-09T04:47:57.895Z,7.50
2019-02-09T04:50:27.387Z,7.50
2019-02-09T04:52:56.876Z,7.50
2019-02-09T04:55:27.342Z,7.50
2019-02-09T04:57:57.029Z,7.60
2019-02-09T05:00:30.804Z,7.50
2019-02-09T05:03:00.340Z,7.60
2019-02-09T05:05:30.529Z,7.50
2019-02-09T05:08:00.050Z,7.50
2019-02-09T05:10:29.618Z,7.60
2019-02-09T05:12:59.127Z,7.50
2019-02-09T05:15:28.728Z,7.50
2019-02-09T05:17:58.369Z,7.50
2019-02-09T05:20:27.893Z,7.40
2019-02-09T05:22:57.407Z,7.40
2019-02-09T05:25:26.955Z,7.50
2019-02-09T05:27:56.502Z,7.50
2019-02-09T05:30:27.403Z,7.50
2019-02-09T05:32:57.368Z,7.60
2019-02-09T05:35:27.020Z,7.50
2019-02-09T05:37:56.484Z,7.60
2019-02-09T05:40:26.584Z,7.60
2019-02-09T05:42:56.090Z,7.50
2019-02-09T05:45:27.195Z,7.50
2019-02-09T05:47:56.891Z,7.60
2019-02-09T05:50:26.470Z,7.60
2019-02-09T05:52:56.160Z,7.60
2019-02-09T05:55:25.713Z,7.60
2019-02-09T05:57:55.210Z,7.60
2019-02-09T06:00:37.543Z,7.60
2019-02-09T06:03:07.159Z,7.60
2019-02-09T06:05:36.676Z,7.60
2019-02-09T06:08:06.530Z,7.50
2019-02-09T06:10:36.139Z,7.50
2019-02-09T06:13:05.706Z,7.60
2019-02-09T06:15:35.246Z,7.50
2019-02-09T06:18:05.253Z,7.50
2019-02-09T06:20:34.745Z,7.50
2019-02-09T06:23:04.255Z,7.50
2019-02-09T06:25:33.816Z,7.50
2019-02-09T06:28:03.342Z,7.50
2019-02-09T06:30:33.249Z,7.50
2019-02-09T06:33:02.742Z,7.50
2019-02-09T06:35:32.275Z,7.40
2019-02-09T06:38:01.786Z,7.40
2019-02-09T06:40:31.371Z,7.40
2019-02-09T06:43:00.906Z,7.40
2019-02-09T06:45:30.391Z,7.40
2019-02-09T06:48:18.996Z,7.40
2019-02-09T06:50:48.499Z,7.40
2019-02-09T06:53:17.999Z,7.40
2019-02-09T06:55:47.544Z,7.40
2019-02-09T06:58:17.097Z,7.40
2019-02-09T07:00:46.595Z,7.40
2019-02-09T07:03:16.144Z,7.40
2019-02-09T07:05:45.647Z,7.40
2019-02-09T07:08:16.703Z,7.40
2019-02-09T07:10:46.603Z,7.40
2019-02-09T07:13:16.115Z,7.40
2019-02-09T07:15:45.613Z,7.40
2019-02-09T07:18:34.201Z,7.50
2019-02-09T07:21:03.823Z,7.40
2019-02-09T07:23:33.343Z,7.50
2019-02-09T07:26:02.869Z,7.50
2019-02-09T07:28:32.369Z,7.50
2019-02-09T07:31:01.889Z,7.50
2019-02-09T07:33:31.442Z,7.50
2019-02-09T07:36:00.979Z,7.50
2019-02-09T07:38:30.501Z,7.50
2019-02-09T07:41:00.066Z,7.50
2019-02-09T07:43:29.559Z,7.50
2019-02-09T07:45:59.120Z,7.50
2019-02-09T07:48:28.710Z,7.50
2019-02-09T07:50:58.207Z,7.50
2019-02-09T07:53:27.768Z,7.50
2019-02-09T07:55:57.407Z,7.60
2019-02-09T07:58:26.948Z,7.60
2019-02-09T08:00:56.442Z,7.60
2019-02-09T08:03:26.015Z,7.70
2019-02-09T08:05:55.516Z,7.70
2019-02-09T08:08:25.013Z,7.70
2019-02-09T08:10:54.553Z,7.70
2019-02-09T08:13:24.050Z,7.70
2019-02-09T08:15:53.555Z,7.70
2019-02-09T08:18:23.145Z,7.70
2019-02-09T08:20:52.735Z,7.80
2019-02-09T08:23:22.347Z,7.80
2019-02-09T08:25:51.870Z,7.90
2019-02-09T08:28:21.432Z,8.00
2019-02-09T08:30:51.203Z,8.00
2019-02-09T08:33:20.797Z,8.10
2019-02-09T08:35:50.332Z,8.20
2019-02-09T08:38:19.833Z,8.30
2019-02-09T08:40:49.383Z,8.30
2019-02-09T08:43:18.881Z,8.30
2019-02-09T08:45:48.364Z,8.40
2019-02-09T08:48:17.920Z,8.40
2019-02-09T08:50:57.381Z,8.40
2019-02-09T08:53:26.932Z,8.40
2019-02-09T08:55:56.500Z,8.50
2019-02-09T08:58:26.007Z,8.50
2019-02-09T09:00:55.532Z,8.60
2019-02-09T09:03:25.028Z,8.60
2019-02-09T09:06:13.586Z,8.60
2019-02-09T09:08:43.265Z,8.80
2019-02-09T09:11:12.766Z,8.80
2019-02-09T09:13:42.423Z,8.90
2019-02-09T09:16:13.548Z,9.00
2019-02-09T09:18:43.055Z,9.00
2019-02-09T09:21:12.610Z,9.00
2019-02-09T09:23:43.652Z,9.10
2019-02-09T09:26:13.180Z,9.10
2019-02-09T09:28:47.510Z,9.20
2019-02-09T09:31:20.803Z,9.10
2019-02-09T09:33:54.099Z,9.20
2019-02-09T09:36:26.611Z,9.20
2019-02-09T09:38:57.793Z,9.10
2019-02-09T09:41:30.913Z,9.10
2019-02-09T09:44:21.963Z,9.30
2019-02-09T09:46:56.149Z,9.40
2019-02-09T09:49:29.434Z,9.50
2019-02-09T09:52:01.646Z,9.50
2019-02-09T09:54:33.967Z,9.50
2019-02-09T09:57:06.245Z,9.60
2019-02-09T09:59:39.717Z,9.70
2019-02-09T10:02:12.583Z,9.70
2019-02-09T10:04:44.833Z,9.70
2019-02-09T10:07:17.805Z,9.80
2019-02-09T10:09:50.886Z,9.80
2019-02-09T10:12:20.706Z,9.80
2019-02-09T10:14:50.821Z,9.90
2019-02-09T10:17:20.747Z,9.90
2019-02-09T10:19:50.966Z,10.00
2019-02-09T10:22:20.537Z,10.00
2019-02-09T10:24:50.690Z,9.90
2019-02-09T10:27:21.003Z,9.90
2019-02-09T10:29:51.342Z,9.90
2019-02-09T10:32:21.594Z,10.00
2019-02-09T10:34:51.552Z,10.10
2019-02-09T10:37:21.174Z,10.10
2019-02-09T10:39:50.761Z,10.20
2019-02-09T10:42:21.100Z,10.20
2019-02-09T10:44:51.443Z,10.20
2019-02-09T10:47:21.661Z,10.30
2019-02-09T10:49:51.764Z,10.30
2019-02-09T10:52:21.338Z,10.30
2019-02-09T10:54:50.828Z,10.30
2019-02-09T10:57:25.675Z,10.40
2019-02-09T11:00:00.187Z,10.40
2019-02-09T11:02:34.775Z,10.40
2019-02-09T11:05:04.643Z,10.40
2019-02-09T11:07:34.208Z,10.40
2019-02-09T11:10:04.556Z,10.40
2019-02-09T11:12:34.156Z,10.30
2019-02-09T11:15:04.247Z,10.30
2019-02-09T11:17:33.767Z,10.30
2019-02-09T11:20:03.309Z,10.30
2019-02-09T11:22:32.813Z,10.20
2019-02-09T11:25:02.327Z,10.20
2019-02-09T11:27:31.953Z,10.30
2019-02-09T11:30:02.055Z,10.20
2019-02-09T11:32:31.550Z,10.30
2019-02-09T11:35:01.296Z,10.30
2019-02-09T11:37:30.908Z,10.40
2019-02-09T11:40:00.466Z,10.40
2019-02-09T11:42:30.034Z,10.40
2019-02-09T11:44:59.553Z,10.40
2019-02-09T11:47:29.110Z,10.30
2019-02-09T11:50:01.896Z,10.20
2019-02-09T11:52:33.897Z,10.30
2019-02-09T11:55:05.004Z,10.30
2019-02-09T11:57:34.503Z,10.30
2019-02-09T12:00:04.494Z,10.40
2019-02-09T12:02:34.037Z,10.30
2019-02-09T12:05:03.600Z,10.30
2019-02-09T12:07:33.110Z,10.30
2019-02-09T12:10:02.684Z,10.30
2019-02-09T12:12:32.536Z,10.30
2019-02-09T12:15:02.251Z,10.30
2019-02-09T12:17:31.792Z,10.30
2019-02-09T12:20:01.359Z,10.20
2019-02-09T12:22:30.924Z,10.20
2019-02-09T12:25:00.500Z,10.20
2019-02-09T12:27:30.011Z,10.20
2019-02-09T12:29:59.505Z,10.20
2019-02-09T12:32:29.034Z,10.10
2019-02-09T12:34:58.559Z,9.80
2019-02-09T12:37:28.152Z,9.70
2019-02-09T12:39:57.679Z,9.70
2019-02-09T12:42:27.443Z,9.70
2019-02-09T12:44:57.309Z,9.50
2019-02-09T12:47:27.139Z,9.10
2019-02-09T12:49:58.208Z,9.20
2019-02-09T12:52:27.739Z,9.30
2019-02-09T12:54:57.253Z,9.20
2019-02-09T12:57:26.772Z,9.30
2019-02-09T12:59:56.388Z,9.30
2019-02-09T13:02:25.916Z,9.30
2019-02-09T13:04:55.458Z,9.20
2019-02-09T13:07:25.064Z,9.00
2019-02-09T13:09:54.548Z,9.00
2019-02-09T13:12:24.094Z,8.90
2019-02-09T13:14:53.704Z,8.90
2019-02-09T13:17:23.246Z,8.90
2019-02-09T13:19:52.777Z,8.90
2019-02-09T13:22:22.348Z,8.90
2019-02-09T13:24:51.884Z,9.00
2019-02-09T13:27:21.422Z,9.10
2019-02-09T13:29:51.056Z,9.10
2019-02-09T13:32:20.584Z,9.30
2019-02-09T13:34:50.149Z,9.40
2019-02-09T13:37:20.550Z,9.60
2019-02-09T13:39:50.084Z,9.60
2019-02-09T13:42:19.619Z,9.70
2019-02-09T13:44:49.232Z,9.80
2019-02-09T13:47:18.764Z,9.80
2019-02-09T13:49:48.299Z,9.80
2019-02-09T13:52:17.893Z,9.90
2019-02-09T13:54:47.476Z,10.00
2019-02-09T13:57:17.002Z,10.00
2019-02-09T13:59:46.595Z,10.10
2019-02-09T14:02:16.126Z,10.10
2019-02-09T14:04:45.656Z,10.00
2019-02-09T14:07:15.219Z,10.00
2019-02-09T14:09:44.740Z,10.00
2019-02-09T14:12:17.594Z,10.00
2019-02-09T14:14:51.500Z,9.90
2019-02-09T14:17:26.214Z,9.90
2019-02-09T14:19:59.598Z,9.90
2019-02-09T14:22:31.963Z,9.90
2019-02-09T14:25:04.302Z,9.90
2019-02-09T14:27:38.045Z,9.90
2019-02-09T14:30:17.580Z,10.00
2019-02-09T14:32:49.902Z,10.00
2019-02-09T14:35:23.116Z,9.90
2019-02-09T14:37:56.651Z,10.00
2019-02-09T14:40:31.299Z,9.90
2019-02-09T14:43:07.444Z,9.80
2019-02-09T14:45:41.885Z,9.80
2019-02-09T14:48:16.272Z,9.70
2019-02-09T14:50:45.733Z,9.80
2019-02-09T14:53:15.339Z,9.80
2019-02-09T14:55:44.889Z,9.80
2019-02-09T14:58:14.444Z,9.80
2019-02-09T15:00:51.475Z,9.70
2019-02-09T15:03:25.908Z,9.80
2019-02-09T15:05:52.169Z,9.80
2019-02-09T15:08:21.755Z,9.80
2019-02-09T15:10:51.320Z,9.70
2019-02-09T15:13:20.840Z,9.80
2019-02-09T15:16:18.640Z,9.70
2019-02-09T15:18:48.218Z,9.70
2019-02-09T15:21:17.740Z,9.70
2019-02-09T15:23:47.276Z,9.60
2019-02-09T15:26:16.898Z,9.60
2019-02-09T15:28:46.405Z,9.60
2019-02-09T15:31:15.942Z,9.60
2019-02-09T15:33:45.455Z,9.60
2019-02-09T15:36:14.991Z,9.70
2019-02-09T15:38:44.498Z,9.60
2019-02-09T15:41:14.062Z,9.60
2019-02-09T15:43:43.605Z,9.60
2019-02-09T15:46:13.182Z,9.70
2019-02-09T15:48:42.773Z,9.70
2019-02-09T15:51:12.345Z,9.70
2019-02-09T15:53:41.870Z,9.70
2019-02-09T15:56:11.387Z,9.60
2019-02-09T15:58:40.970Z,9.60
2019-02-09T16:01:10.483Z,9.60
2019-02-09T16:03:39.990Z,9.60
2019-02-09T16:06:09.564Z,9.60
2019-02-09T16:08:39.096Z,9.60
2019-02-09T16:11:08.686Z,9.60
2019-02-09T16:13:45.333Z,9.60
2019-02-09T16:16:09.443Z,9.60
2019-02-09T16:18:39.215Z,9.60
2019-02-09T16:21:08.757Z,9.60
2019-02-09T16:23:38.321Z,9.50
2019-02-09T16:26:07.892Z,9.50
2019-02-09T16:28:37.479Z,9.60
2019-02-09T16:31:07.021Z,9.50
2019-02-09T16:33:36.572Z,9.50
2019-02-09T16:36:06.371Z,9.60
2019-02-09T16:38:35.882Z,9.60
2019-02-09T16:41:06.007Z,9.50
2019-02-09T16:43:35.534Z,9.50
2019-02-09T16:46:05.079Z,9.50
2019-02-09T16:48:34.546Z,9.50
2019-02-09T16:51:04.105Z,9.50
2019-02-09T16:53:33.605Z,9.50
2019-02-09T16:56:03.124Z,9.50
2019-02-09T16:58:32.641Z,9.50
2019-02-09T17:01:02.153Z,9.50
2019-02-09T17:03:31.689Z,9.50
2019-02-09T17:06:01.227Z,9.50
2019-02-09T17:08:30.734Z,9.50
2019-02-09T17:11:00.214Z,9.50
2019-02-09T17:13:29.766Z,9.50
2019-02-09T17:15:59.279Z,9.50
2019-02-09T17:18:28.783Z,9.40
2019-02-09T17:20:58.347Z,9.50
2019-02-09T17:23:27.844Z,9.40
2019-02-09T17:25:57.364Z,9.40
2019-02-09T17:28:26.970Z,9.40
2019-02-09T17:30:56.474Z,9.40
2019-02-09T17:33:25.989Z,9.40
2019-02-09T17:35:55.512Z,9.40
2019-02-09T17:38:25.076Z,9.40
2019-02-09T17:40:54.602Z,9.40
2019-02-09T17:43:24.174Z,9.40
2019-02-09T17:45:56.674Z,9.40
2019-02-09T17:48:26.171Z,9.40
2019-02-09T17:50:55.716Z,9.40
2019-02-09T17:53:25.267Z,9.40
2019-02-09T17:55:54.784Z,9.40
2019-02-09T17:58:24.335Z,9.40
2019-02-09T18:00:57.408Z,9.40
2019-02-09T18:03:26.990Z,9.40
2019-02-09T18:05:56.516Z,9.40
2019-02-09T18:08:26.013Z,9.30
2019-02-09T18:10:55.528Z,9.30
2019-02-09T18:13:25.072Z,9.30
2019-02-09T18:15:54.588Z,9.30
2019-02-09T18:18:24.062Z,9.40
2019-02-09T18:20:53.606Z,9.40
2019-02-09T18:23:23.107Z,9.40
2019-02-09T18:25:52.611Z,9.40
2019-02-09T18:28:22.121Z,9.30
2019-02-09T18:30:51.624Z,9.30
2019-02-09T18:33:21.210Z,9.30
2019-02-09T18:35:50.762Z,9.20
2019-02-09T18:38:20.285Z,9.10
2019-02-09T18:40:49.790Z,9.10
2019-02-09T18:43:19.342Z,9.00
2019-02-09T18:45:48.958Z,9.00
2019-02-09T18:48:18.463Z,8.90
2019-02-09T18:50:48.001Z,8.90
2019-02-09T18:53:17.536Z,8.90
2019-02-09T18:55:47.075Z,8.80
2019-02-09T18:58:16.616Z,8.90
2019-02-09T19:00:46.145Z,8.80
2019-02-09T19:03:15.645Z,8.80
2019-02-09T19:05:45.201Z,8.70
2019-02-09T19:08:14.685Z,8.70
2019-02-09T19:10:44.207Z,8.70
2019-02-09T19:13:16.811Z,8.70
2019-02-09T19:15:46.312Z,8.80
2019-02-09T19:18:16.168Z,8.70
2019-02-09T19:20:49.101Z,8.70
2019-02-09T19:23:18.645Z,8.70
2019-02-09T19:25:48.187Z,8.70
2019-02-09T19:28:17.737Z,8.60
2019-02-09T19:30:47.224Z,8.70
2019-02-09T19:33:16.715Z,8.70
2019-02-09T19:35:46.245Z,8.70
2019-02-09T19:38:15.792Z,8.60
2019-02-09T19:40:45.279Z,8.60
2019-02-09T19:43:14.808Z,8.60
2019-02-09T19:45:44.343Z,8.60
2019-02-09T19:48:13.863Z,8.60
2019-02-09T19:50:43.439Z,8.50
2019-02-09T19:53:12.950Z,8.50
2019-02-09T19:55:42.450Z,8.60
2019-02-09T19:58:11.988Z,8.50
2019-02-09T20:00:43.323Z,8.60
2019-02-09T20:03:12.836Z,8.60
2019-02-09T20:05:42.358Z,8.60
2019-02-09T20:08:12.378Z,8.60
2019-02-09T20:10:42.756Z,8.50
2019-02-09T20:13:12.446Z,8.50
2019-02-09T20:15:42.103Z,8.60
2019-02-09T20:18:11.903Z,8.60
2019-02-09T20:20:46.964Z,8.60
2019-02-09T20:23:12.611Z,8.60
2019-02-09T20:25:42.123Z,8.50
2019-02-09T20:28:11.641Z,8.50
2019-02-09T20:30:41.334Z,8.50
2019-02-09T20:33:10.944Z,8.50
2019-02-09T20:35:40.482Z,8.50
2019-02-09T20:38:10.433Z,8.50
2019-02-09T20:40:42.338Z,8.50
2019-02-09T20:43:13.540Z,8.50
2019-02-09T20:45:43.142Z,8.50
2019-02-09T20:48:12.641Z,8.50
2019-02-09T20:50:42.268Z,8.50
2019-02-09T20:53:12.091Z,8.60
2019-02-09T20:55:41.643Z,8.60
2019-02-09T20:58:13.036Z,8.70
2019-02-09T21:00:42.534Z,8.60
2019-02-09T21:03:12.208Z,8.60
2019-02-09T21:05:41.859Z,8.60
2019-02-09T21:08:11.487Z,8.50
2019-02-09T21:10:41.258Z,8.50
2019-02-09T21:13:10.839Z,8.50
2019-02-09T21:15:40.371Z,8.50
2019-02-09T21:18:10.154Z,8.60
2019-02-09T21:20:39.711Z,8.50
2019-02-09T21:23:09.382Z,8.60
2019-02-09T21:25:40.786Z,8.60
2019-02-09T21:28:10.355Z,8.70
2019-02-09T21:30:39.859Z,8.80
2019-02-09T21:33:09.390Z,8.80
2019-02-09T21:35:43.812Z,8.80
2019-02-09T21:38:10.171Z,8.90
2019-02-09T21:40:39.649Z,8.90
2019-02-09T21:43:09.162Z,8.90
2019-02-09T21:45:45.000Z,8.90
2019-02-09T21:48:09.820Z,8.90
2019-02-09T21:50:39.692Z,8.90
2019-02-09T21:53:09.528Z,8.90
2019-02-09T21:55:40.309Z,8.80
2019-02-09T21:58:18.391Z,8.90
2019-02-09T22:01:19.809Z,8.90
2019-02-09T22:03:50.375Z,8.90
2019-02-09T22:06:20.066Z,8.90
2019-02-09T22:08:49.661Z,8.90
2019-02-09T22:11:19.470Z,9.00
2019-02-09T22:13:53.144Z,9.20
2019-02-09T22:16:57.105Z,9.10
2019-02-09T22:19:26.624Z,9.00
2019-02-09T22:21:57.171Z,9.00
2019-02-09T22:24:26.895Z,9.00
2019-02-09T22:26:56.541Z,9.00
2019-02-09T22:29:25.956Z,9.00
2019-02-09T22:31:55.498Z,9.00
2019-02-09T22:34:25.075Z,9.00
2019-02-09T22:36:54.697Z,9.00
2019-02-09T22:39:24.288Z,9.00
2019-02-09T22:41:53.821Z,9.10
2019-02-09T22:44:23.400Z,9.10
2019-02-09T22:46:52.943Z,9.10
2019-02-09T22:49:22.557Z,9.10
2019-02-09T22:51:52.138Z,9.10
2019-02-09T22:54:21.660Z,9.10
2019-02-09T22:56:51.217Z,9.10
2019-02-09T22:59:20.865Z,9.10
2019-02-09T23:01:51.729Z,9.10
2019-02-09T23:04:55.396Z,9.20
2019-02-09T23:07:27.741Z,9.10
2019-02-09T23:09:58.003Z,9.20
2019-02-09T23:12:27.516Z,9.10
2019-02-09T23:14:57.148Z,9.20
2019-02-09T23:17:26.730Z,9.10
2019-02-09T23:19:57.125Z,9.10
2019-02-09T23:22:26.675Z,9.10
2019-02-09T23:24:56.974Z,9.10
2019-02-09T23:27:26.523Z,9.10
2019-02-09T23:29:56.065Z,9.10
2019-02-09T23:32:26.257Z,9.10
2019-02-09T23:35:14.982Z,9.10
2019-02-09T23:37:44.528Z,9.10
2019-02-09T23:40:14.182Z,9.10
2019-02-09T23:42:45.143Z,9.10
2019-02-09T23:45:14.789Z,9.10
2019-02-09T23:47:45.454Z,9.10
2019-02-09T23:50:15.006Z,9.20
2019-02-09T23:52:44.499Z,9.20
2019-02-09T23:55:13.993Z,9.20
2019-02-09T23:57:43.523Z,9.20
